SESM

Details ICAO SESM (PTZ)
Name RIO AMAZONAS
Region Equador
Timezone America/Guayaquil (UTC-5.0)
Plans Departing 2
Arriving 2
Stats Elevation 3,465 ft / 1,056 m (AMSL)
Location -1.505246° -78.062676°
Runways 1
Magnetic Variation 3.604° W
Sunrise 2018-05-23 11:09:09 UTC / 2018-05-23 06:09:09 Local
Sunset 2018-05-23 23:11:45 UTC / 2018-05-23 18:11:45 Local
Advertisement - Login to hide

Runways

ID Width Length Bearing (true) Bearing (mag) Surface Threshold Offset Overrun Length
12 82 ft / 25 m 5,051 ft / 1,540 m 119.54° 123.14° Asphalt 0 ft / 0 m 0 ft / 0 m
30 82 ft / 25 m 5,051 ft / 1,540 m 299.54° 303.14° Asphalt 0 ft / 0 m 0 ft / 0 m

Map

Weather


0- 5 10 15 20 25 30 35+ Temperature / ° C

Clouds and Precipitation
Forecast for 2018-05-24 00:00 UTC. Updated 4 minutes ago

Ground ~20,000 ft ~40,000 ft Winds

METAR

SESM 232300Z 10005KT 4000 -RA FEW003 SCT030 BKN100 21/20 Q1017 RMK A3004

TAF

Not found

Frequencies

Tower 122.60 MHz SHELL TWR
Approach 119.50 MHz SHELL APP
Warning: Do not use this data for real-world aviation or navigation. No guarantee of current accuracy is given.